sensor_id;sensor_type;location;lat;lon;timestamp;pressure;altitude;pressure_sealevel;temperature;humidity
38716;BME280;24833;49.324;8.694;2023-04-26T00:00:53;99904.22;;;6.38;66.98
38716;BME280;24833;49.324;8.694;2023-04-26T00:03:21;99903.72;;;6.34;67.20
38716;BME280;24833;49.324;8.694;2023-04-26T00:05:49;99901.59;;;6.30;67.03
38716;BME280;24833;49.324;8.694;2023-04-26T00:08:16;99908.19;;;6.25;67.03
38716;BME280;24833;49.324;8.694;2023-04-26T00:10:43;99902.53;;;6.20;66.94
38716;BME280;24833;49.324;8.694;2023-04-26T00:13:10;99904.88;;;6.15;67.00
38716;BME280;24833;49.324;8.694;2023-04-26T00:15:37;99906.38;;;6.10;67.06
38716;BME280;24833;49.324;8.694;2023-04-26T00:18:04;99904.19;;;6.05;67.10
38716;BME280;24833;49.324;8.694;2023-04-26T00:20:32;99910.16;;;5.99;66.71
38716;BME280;24833;49.324;8.694;2023-04-26T00:22:59;99914.44;;;5.92;66.96
38716;BME280;24833;49.324;8.694;2023-04-26T00:25:26;99911.41;;;5.87;66.75
38716;BME280;24833;49.324;8.694;2023-04-26T00:27:53;99912.88;;;5.81;66.76
38716;BME280;24833;49.324;8.694;2023-04-26T00:30:20;99920.50;;;5.76;66.88
38716;BME280;24833;49.324;8.694;2023-04-26T00:32:48;99914.19;;;5.69;66.85
38716;BME280;24833;49.324;8.694;2023-04-26T00:35:15;99911.19;;;5.64;66.87
38716;BME280;24833;49.324;8.694;2023-04-26T00:37:42;99911.47;;;5.61;66.78
38716;BME280;24833;49.324;8.694;2023-04-26T00:40:10;99909.34;;;5.56;66.96
38716;BME280;24833;49.324;8.694;2023-04-26T00:42:38;99907.69;;;5.55;67.20
38716;BME280;24833;49.324;8.694;2023-04-26T00:45:07;99902.69;;;5.52;67.27
38716;BME280;24833;49.324;8.694;2023-04-26T00:47:34;99916.91;;;5.51;67.00
38716;BME280;24833;49.324;8.694;2023-04-26T00:50:02;99913.63;;;5.49;67.37
38716;BME280;24833;49.324;8.694;2023-04-26T00:52:30;99902.50;;;5.45;66.90
38716;BME280;24833;49.324;8.694;2023-04-26T00:54:58;99916.06;;;5.42;66.72
38716;BME280;24833;49.324;8.694;2023-04-26T00:57:25;99914.53;;;5.40;67.17
38716;BME280;24833;49.324;8.694;2023-04-26T00:59:52;99915.69;;;5.37;67.03
38716;BME280;24833;49.324;8.694;2023-04-26T01:02:19;99915.19;;;5.34;66.77
38716;BME280;24833;49.324;8.694;2023-04-26T01:04:47;99922.63;;;5.30;66.88
38716;BME280;24833;49.324;8.694;2023-04-26T01:07:15;99918.63;;;5.26;67.11
38716;BME280;24833;49.324;8.694;2023-04-26T01:09:43;99922.59;;;5.22;66.93
38716;BME280;24833;49.324;8.694;2023-04-26T01:12:11;99913.13;;;5.19;67.17
38716;BME280;24833;49.324;8.694;2023-04-26T01:14:39;99916.75;;;5.18;67.19
38716;BME280;24833;49.324;8.694;2023-04-26T01:17:06;99915.28;;;5.16;67.16
38716;BME280;24833;49.324;8.694;2023-04-26T01:19:33;99916.25;;;5.15;67.15
38716;BME280;24833;49.324;8.694;2023-04-26T01:22:03;99920.88;;;5.13;67.10
38716;BME280;24833;49.324;8.694;2023-04-26T01:24:30;99915.72;;;5.11;67.10
38716;BME280;24833;49.324;8.694;2023-04-26T01:26:58;99923.00;;;5.09;66.91
38716;BME280;24833;49.324;8.694;2023-04-26T01:29:26;99917.84;;;5.08;67.03
38716;BME280;24833;49.324;8.694;2023-04-26T01:31:53;99923.31;;;5.06;67.01
38716;BME280;24833;49.324;8.694;2023-04-26T01:34:20;99915.53;;;5.05;67.24
38716;BME280;24833;49.324;8.694;2023-04-26T01:36:47;99915.84;;;5.02;66.99
38716;BME280;24833;49.324;8.694;2023-04-26T01:39:14;99906.41;;;4.99;66.78
38716;BME280;24833;49.324;8.694;2023-04-26T01:41:41;99914.66;;;4.96;67.04
38716;BME280;24833;49.324;8.694;2023-04-26T01:44:08;99921.91;;;4.94;66.87
38716;BME280;24833;49.324;8.694;2023-04-26T01:46:35;99915.78;;;4.93;67.03
38716;BME280;24833;49.324;8.694;2023-04-26T01:49:03;99912.31;;;4.93;67.18
38716;BME280;24833;49.324;8.694;2023-04-26T01:51:30;99916.09;;;4.90;67.19
38716;BME280;24833;49.324;8.694;2023-04-26T01:53:58;99906.50;;;4.89;66.99
38716;BME280;24833;49.324;8.694;2023-04-26T01:56:25;99912.78;;;4.88;67.17
38716;BME280;24833;49.324;8.694;2023-04-26T01:58:53;99907.63;;;4.87;66.87
38716;BME280;24833;49.324;8.694;2023-04-26T02:01:22;99906.13;;;4.84;66.89
38716;BME280;24833;49.324;8.694;2023-04-26T02:03:49;99906.31;;;4.83;66.99
38716;BME280;24833;49.324;8.694;2023-04-26T02:06:19;99905.59;;;4.81;67.11
38716;BME280;24833;49.324;8.694;2023-04-26T02:08:46;99905.78;;;4.79;66.98
38716;BME280;24833;49.324;8.694;2023-04-26T02:11:13;99902.28;;;4.79;67.22
38716;BME280;24833;49.324;8.694;2023-04-26T02:13:40;99905.25;;;4.76;67.14
38716;BME280;24833;49.324;8.694;2023-04-26T02:16:07;99912.50;;;4.74;67.03
38716;BME280;24833;49.324;8.694;2023-04-26T02:18:34;99906.72;;;4.70;67.05
38716;BME280;24833;49.324;8.694;2023-04-26T02:21:01;99912.44;;;4.65;66.83
38716;BME280;24833;49.324;8.694;2023-04-26T02:23:30;99908.31;;;4.63;66.89
38716;BME280;24833;49.324;8.694;2023-04-26T02:25:57;99909.59;;;4.59;66.91
38716;BME280;24833;49.324;8.694;2023-04-26T02:28:24;99908.25;;;4.55;66.78
38716;BME280;24833;49.324;8.694;2023-04-26T02:30:54;99914.66;;;4.52;67.13
38716;BME280;24833;49.324;8.694;2023-04-26T02:33:23;99906.06;;;4.50;67.42
38716;BME280;24833;49.324;8.694;2023-04-26T02:35:50;99915.09;;;4.48;67.05
38716;BME280;24833;49.324;8.694;2023-04-26T02:38:18;99909.97;;;4.46;67.17
38716;BME280;24833;49.324;8.694;2023-04-26T02:40:45;99912.94;;;4.43;67.11
38716;BME280;24833;49.324;8.694;2023-04-26T02:43:12;99918.41;;;4.42;67.13
38716;BME280;24833;49.324;8.694;2023-04-26T02:45:41;99921.31;;;4.38;67.03
38716;BME280;24833;49.324;8.694;2023-04-26T02:48:10;99919.81;;;4.36;66.97
38716;BME280;24833;49.324;8.694;2023-04-26T02:50:38;99914.81;;;4.33;67.15
38716;BME280;24833;49.324;8.694;2023-04-26T02:53:05;99913.16;;;4.32;66.90
38716;BME280;24833;49.324;8.694;2023-04-26T02:55:32;99912.50;;;4.30;66.82
38716;BME280;24833;49.324;8.694;2023-04-26T02:57:59;99910.84;;;4.29;66.92
38716;BME280;24833;49.324;8.694;2023-04-26T03:00:26;99918.78;;;4.29;67.01
38716;BME280;24833;49.324;8.694;2023-04-26T03:02:54;99917.09;;;4.28;67.35
38716;BME280;24833;49.324;8.694;2023-04-26T03:05:23;99916.25;;;4.27;67.25
38716;BME280;24833;49.324;8.694;2023-04-26T03:07:50;99917.41;;;4.25;66.98
38716;BME280;24833;49.324;8.694;2023-04-26T03:10:17;99908.81;;;4.23;66.99
38716;BME280;24833;49.324;8.694;2023-04-26T03:12:44;99912.44;;;4.22;67.12
38716;BME280;24833;49.324;8.694;2023-04-26T03:15:11;99909.09;;;4.20;67.23
38716;BME280;24833;49.324;8.694;2023-04-26T03:17:40;99906.59;;;4.18;67.10
38716;BME280;24833;49.324;8.694;2023-04-26T03:20:10;99913.03;;;4.16;66.93
38716;BME280;24833;49.324;8.694;2023-04-26T03:22:37;99911.38;;;4.15;67.03
38716;BME280;24833;49.324;8.694;2023-04-26T03:25:06;99913.31;;;4.13;67.32
38716;BME280;24833;49.324;8.694;2023-04-26T03:27:33;99910.84;;;4.11;67.25
38716;BME280;24833;49.324;8.694;2023-04-26T03:30:00;99912.94;;;4.07;67.11
38716;BME280;24833;49.324;8.694;2023-04-26T03:32:29;99913.91;;;4.06;66.91
38716;BME280;24833;49.324;8.694;2023-04-26T03:34:56;99910.59;;;4.04;67.06
38716;BME280;24833;49.324;8.694;2023-04-26T03:37:24;99918.69;;;4.03;67.03
38716;BME280;24833;49.324;8.694;2023-04-26T03:39:57;99918.84;;;4.01;67.35
38716;BME280;24833;49.324;8.694;2023-04-26T03:42:24;99919.13;;;3.98;67.39
38716;BME280;24833;49.324;8.694;2023-04-26T03:44:53;99923.91;;;3.95;67.13
38716;BME280;24833;49.324;8.694;2023-04-26T03:47:21;99920.84;;;3.90;67.00
38716;BME280;24833;49.324;8.694;2023-04-26T03:49:48;99922.69;;;3.89;67.06
38716;BME280;24833;49.324;8.694;2023-04-26T03:52:15;99925.59;;;3.86;67.22
38716;BME280;24833;49.324;8.694;2023-04-26T03:54:42;99924.25;;;3.82;67.31
38716;BME280;24833;49.324;8.694;2023-04-26T03:57:10;99921.88;;;3.79;67.97
38716;BME280;24833;49.324;8.694;2023-04-26T03:59:37;99918.03;;;3.73;67.49
38716;BME280;24833;49.324;8.694;2023-04-26T04:02:04;99911.69;;;3.66;67.13
38716;BME280;24833;49.324;8.694;2023-04-26T04:04:32;99908.66;;;3.61;67.12
38716;BME280;24833;49.324;8.694;2023-04-26T04:06:59;99908.44;;;3.54;67.24
38716;BME280;24833;49.324;8.694;2023-04-26T04:09:26;99908.84;;;3.50;67.23
38716;BME280;24833;49.324;8.694;2023-04-26T04:11:53;99910.28;;;3.44;67.10
38716;BME280;24833;49.324;8.694;2023-04-26T04:14:20;99911.53;;;3.40;67.17
38716;BME280;24833;49.324;8.694;2023-04-26T04:16:47;99911.84;;;3.37;67.13
38716;BME280;24833;49.324;8.694;2023-04-26T04:19:14;99920.03;;;3.34;67.41
38716;BME280;24833;49.324;8.694;2023-04-26T04:21:42;99909.94;;;3.30;67.15
38716;BME280;24833;49.324;8.694;2023-04-26T04:24:09;99911.03;;;3.27;67.20
38716;BME280;24833;49.324;8.694;2023-04-26T04:26:37;99907.72;;;3.25;66.98
38716;BME280;24833;49.324;8.694;2023-04-26T04:29:04;99916.59;;;3.24;67.52
38716;BME280;24833;49.324;8.694;2023-04-26T04:31:36;99916.88;;;3.21;66.95
38716;BME280;24833;49.324;8.694;2023-04-26T04:34:04;99919.69;;;3.19;67.09
38716;BME280;24833;49.324;8.694;2023-04-26T04:36:32;99922.47;;;3.18;67.33
38716;BME280;24833;49.324;8.694;2023-04-26T04:38:59;99927.75;;;3.18;67.15
38716;BME280;24833;49.324;8.694;2023-04-26T04:41:26;99926.09;;;3.17;67.22
38716;BME280;24833;49.324;8.694;2023-04-26T04:43:53;99929.69;;;3.16;67.13
38716;BME280;24833;49.324;8.694;2023-04-26T04:46:21;99936.63;;;3.17;67.17
38716;BME280;24833;49.324;8.694;2023-04-26T04:48:49;99933.00;;;3.18;67.47
38716;BME280;24833;49.324;8.694;2023-04-26T04:51:16;99934.66;;;3.19;67.37
38716;BME280;24833;49.324;8.694;2023-04-26T04:53:43;99935.50;;;3.19;67.32
38716;BME280;24833;49.324;8.694;2023-04-26T04:56:10;99941.50;;;3.21;67.47
38716;BME280;24833;49.324;8.694;2023-04-26T04:58:37;99948.28;;;3.24;67.76
38716;BME280;24833;49.324;8.694;2023-04-26T05:01:05;99943.81;;;3.24;67.66
38716;BME280;24833;49.324;8.694;2023-04-26T05:03:44;99946.31;;;3.26;67.55
38716;BME280;24833;49.324;8.694;2023-04-26T05:06:12;99946.03;;;3.29;67.74
38716;BME280;24833;49.324;8.694;2023-04-26T05:08:39;99947.69;;;3.30;67.74
38716;BME280;24833;49.324;8.694;2023-04-26T05:11:07;99957.94;;;3.33;67.76
38716;BME280;24833;49.324;8.694;2023-04-26T05:13:35;99957.69;;;3.36;67.65
38716;BME280;24833;49.324;8.694;2023-04-26T05:16:03;99957.38;;;3.39;67.80
38716;BME280;24833;49.324;8.694;2023-04-26T05:18:30;99961.41;;;3.43;67.67
38716;BME280;24833;49.324;8.694;2023-04-26T05:20:58;99965.41;;;3.47;67.87
38716;BME280;24833;49.324;8.694;2023-04-26T05:23:25;99972.06;;;3.51;67.98
38716;BME280;24833;49.324;8.694;2023-04-26T05:25:53;99975.09;;;3.57;68.00
38716;BME280;24833;49.324;8.694;2023-04-26T05:28:52;99976.19;;;3.64;67.96
38716;BME280;24833;49.324;8.694;2023-04-26T05:31:28;99977.25;;;3.71;68.13
38716;BME280;24833;49.324;8.694;2023-04-26T05:34:15;99982.94;;;3.76;68.27
38716;BME280;24833;49.324;8.694;2023-04-26T05:36:47;99979.72;;;3.82;68.35
38716;BME280;24833;49.324;8.694;2023-04-26T05:39:14;99969.50;;;3.87;68.28
38716;BME280;24833;49.324;8.694;2023-04-26T05:41:41;99971.56;;;3.93;68.36
38716;BME280;24833;49.324;8.694;2023-04-26T05:44:09;99984.34;;;3.98;68.48
38716;BME280;24833;49.324;8.694;2023-04-26T05:46:37;99983.91;;;4.02;68.24
38716;BME280;24833;49.324;8.694;2023-04-26T05:49:04;99984.28;;;4.07;68.26
38716;BME280;24833;49.324;8.694;2023-04-26T05:51:32;99981.03;;;4.14;68.52
38716;BME280;24833;49.324;8.694;2023-04-26T05:53:59;99983.91;;;4.20;68.19
38716;BME280;24833;49.324;8.694;2023-04-26T05:56:29;99980.81;;;4.25;68.42
38716;BME280;24833;49.324;8.694;2023-04-26T05:58:57;99979.41;;;4.30;68.56
38716;BME280;24833;49.324;8.694;2023-04-26T06:01:24;99986.91;;;4.35;68.55
38716;BME280;24833;49.324;8.694;2023-04-26T06:03:51;99990.72;;;4.41;68.50
38716;BME280;24833;49.324;8.694;2023-04-26T06:06:23;99993.75;;;4.46;68.57
38716;BME280;24833;49.324;8.694;2023-04-26T06:08:49;99994.13;;;4.51;68.49
38716;BME280;24833;49.324;8.694;2023-04-26T06:11:17;99997.28;;;4.54;68.32
38716;BME280;24833;49.324;8.694;2023-04-26T06:13:44;99997.69;;;4.59;68.60
38716;BME280;24833;49.324;8.694;2023-04-26T06:16:11;100006.97;;;4.63;68.58
38716;BME280;24833;49.324;8.694;2023-04-26T06:18:38;100002.22;;;4.67;68.51
38716;BME280;24833;49.324;8.694;2023-04-26T06:21:05;100008.03;;;4.71;68.51
38716;BME280;24833;49.324;8.694;2023-04-26T06:23:32;100004.09;;;4.75;68.28
38716;BME280;24833;49.324;8.694;2023-04-26T06:25:59;100006.94;;;4.81;68.51
38716;BME280;24833;49.324;8.694;2023-04-26T06:28:26;100007.50;;;4.85;68.65
38716;BME280;24833;49.324;8.694;2023-04-26T06:30:53;100010.34;;;4.91;68.91
38716;BME280;24833;49.324;8.694;2023-04-26T06:33:21;100003.63;;;4.97;68.67
38716;BME280;24833;49.324;8.694;2023-04-26T06:35:47;100005.81;;;5.02;68.65
38716;BME280;24833;49.324;8.694;2023-04-26T06:38:14;100008.69;;;5.08;68.79
38716;BME280;24833;49.324;8.694;2023-04-26T06:40:42;100009.03;;;5.13;69.12
38716;BME280;24833;49.324;8.694;2023-04-26T06:43:09;100010.06;;;5.20;68.89
38716;BME280;24833;49.324;8.694;2023-04-26T06:45:36;100004.16;;;5.27;69.09
38716;BME280;24833;49.324;8.694;2023-04-26T06:48:04;100003.38;;;5.34;69.17
38716;BME280;24833;49.324;8.694;2023-04-26T06:50:32;100001.75;;;5.41;69.43
38716;BME280;24833;49.324;8.694;2023-04-26T06:52:59;100007.13;;;5.50;69.37
38716;BME280;24833;49.324;8.694;2023-04-26T06:55:26;100000.88;;;5.59;69.55
38716;BME280;24833;49.324;8.694;2023-04-26T06:57:53;100001.75;;;5.67;69.51
38716;BME280;24833;49.324;8.694;2023-04-26T07:00:20;100002.47;;;5.78;69.68
38716;BME280;24833;49.324;8.694;2023-04-26T07:02:47;99994.53;;;5.86;69.72
38716;BME280;24833;49.324;8.694;2023-04-26T07:05:14;99988.31;;;5.95;69.84
38716;BME280;24833;49.324;8.694;2023-04-26T07:07:42;99992.66;;;6.04;70.02
38716;BME280;24833;49.324;8.694;2023-04-26T07:10:09;99991.69;;;6.13;69.89
38716;BME280;24833;49.324;8.694;2023-04-26T07:12:36;99990.72;;;6.22;70.23
38716;BME280;24833;49.324;8.694;2023-04-26T07:15:03;99986.09;;;6.33;70.27
38716;BME280;24833;49.324;8.694;2023-04-26T07:17:32;99987.63;;;6.43;70.02
38716;BME280;24833;49.324;8.694;2023-04-26T07:19:59;99986.63;;;6.52;70.42
38716;BME280;24833;49.324;8.694;2023-04-26T07:22:26;99987.31;;;6.63;70.49
38716;BME280;24833;49.324;8.694;2023-04-26T07:24:53;99985.47;;;6.71;70.52
38716;BME280;24833;49.324;8.694;2023-04-26T07:27:20;99987.81;;;6.82;70.63
38716;BME280;24833;49.324;8.694;2023-04-26T07:29:47;99990.13;;;6.94;70.60
38716;BME280;24833;49.324;8.694;2023-04-26T07:32:14;99996.09;;;7.04;70.84
38716;BME280;24833;49.324;8.694;2023-04-26T07:34:41;99986.13;;;7.14;70.68
38716;BME280;24833;49.324;8.694;2023-04-26T07:37:08;99990.25;;;7.25;70.90
38716;BME280;24833;49.324;8.694;2023-04-26T07:39:35;99983.59;;;7.37;71.14
38716;BME280;24833;49.324;8.694;2023-04-26T07:42:02;99985.22;;;7.46;71.23
38716;BME280;24833;49.324;8.694;2023-04-26T07:44:29;99983.38;;;7.55;71.09
38716;BME280;24833;49.324;8.694;2023-04-26T07:46:56;99986.03;;;7.63;70.60
38716;BME280;24833;49.324;8.694;2023-04-26T07:49:23;99988.00;;;7.69;70.44
38716;BME280;24833;49.324;8.694;2023-04-26T07:51:50;99991.97;;;7.73;70.58
38716;BME280;24833;49.324;8.694;2023-04-26T07:54:18;99987.16;;;7.77;70.25
38716;BME280;24833;49.324;8.694;2023-04-26T07:56:45;99994.94;;;7.78;70.35
38716;BME280;24833;49.324;8.694;2023-04-26T07:59:12;99994.25;;;7.84;70.70
38716;BME280;24833;49.324;8.694;2023-04-26T08:01:39;99994.84;;;7.95;70.94
38716;BME280;24833;49.324;8.694;2023-04-26T08:04:07;99990.16;;;8.05;70.81
38716;BME280;24833;49.324;8.694;2023-04-26T08:06:34;99999.75;;;8.14;71.13
38716;BME280;24833;49.324;8.694;2023-04-26T08:09:01;100001.22;;;8.25;70.71
38716;BME280;24833;49.324;8.694;2023-04-26T08:11:30;99997.34;;;8.35;71.04
38716;BME280;24833;49.324;8.694;2023-04-26T08:13:57;99996.94;;;8.46;70.59
38716;BME280;24833;49.324;8.694;2023-04-26T08:16:24;99992.22;;;8.57;70.28
38716;BME280;24833;49.324;8.694;2023-04-26T08:18:51;99997.31;;;8.66;70.06
38716;BME280;24833;49.324;8.694;2023-04-26T08:21:18;99990.75;;;8.77;71.02
38716;BME280;24833;49.324;8.694;2023-04-26T08:23:45;99993.63;;;8.90;71.16
38716;BME280;24833;49.324;8.694;2023-04-26T08:26:12;99998.50;;;9.01;70.98
38716;BME280;24833;49.324;8.694;2023-04-26T08:28:39;99997.91;;;9.14;71.19
38716;BME280;24833;49.324;8.694;2023-04-26T08:31:06;99991.97;;;9.27;71.18
38716;BME280;24833;49.324;8.694;2023-04-26T08:33:34;99996.38;;;9.35;70.67
38716;BME280;24833;49.324;8.694;2023-04-26T08:36:01;99992.63;;;9.44;71.14
38716;BME280;24833;49.324;8.694;2023-04-26T08:38:28;99994.38;;;9.51;71.01
38716;BME280;24833;49.324;8.694;2023-04-26T08:40:58;99994.84;;;9.55;70.83
38716;BME280;24833;49.324;8.694;2023-04-26T08:43:28;99989.97;;;9.59;69.70
38716;BME280;24833;49.324;8.694;2023-04-26T08:45:57;99988.13;;;9.59;69.75
38716;BME280;24833;49.324;8.694;2023-04-26T08:48:27;99988.97;;;9.60;69.92
38716;BME280;24833;49.324;8.694;2023-04-26T08:50:56;99987.59;;;9.64;70.57
38716;BME280;24833;49.324;8.694;2023-04-26T08:53:24;99980.84;;;9.68;70.85
38716;BME280;24833;49.324;8.694;2023-04-26T08:55:52;99988.59;;;9.77;70.66
38716;BME280;24833;49.324;8.694;2023-04-26T08:58:20;99974.97;;;9.87;70.43
38716;BME280;24833;49.324;8.694;2023-04-26T09:00:49;99977.53;;;9.95;70.53
38716;BME280;24833;49.324;8.694;2023-04-26T09:03:20;99967.59;;;10.04;70.81
38716;BME280;24833;49.324;8.694;2023-04-26T09:05:49;99973.25;;;10.16;70.84
38716;BME280;24833;49.324;8.694;2023-04-26T09:08:16;99973.44;;;10.29;70.86
38716;BME280;24833;49.324;8.694;2023-04-26T09:10:44;99970.66;;;10.37;70.49
38716;BME280;24833;49.324;8.694;2023-04-26T09:13:11;99978.34;;;10.47;71.08
38716;BME280;24833;49.324;8.694;2023-04-26T09:15:39;99968.38;;;10.55;70.33
38716;BME280;24833;49.324;8.694;2023-04-26T09:18:22;99972.03;;;10.76;72.61
38716;BME280;24833;49.324;8.694;2023-04-26T09:21:07;99971.03;;;10.98;72.73
38716;BME280;24833;49.324;8.694;2023-04-26T09:23:34;99968.50;;;11.18;71.58
38716;BME280;24833;49.324;8.694;2023-04-26T09:26:18;99961.03;;;11.41;73.21
38716;BME280;24833;49.324;8.694;2023-04-26T09:28:46;99962.41;;;11.59;72.28
38716;BME280;24833;49.324;8.694;2023-04-26T09:31:39;99961.28;;;11.81;73.10
38716;BME280;24833;49.324;8.694;2023-04-26T09:34:09;99956.81;;;11.95;72.07
38716;BME280;24833;49.324;8.694;2023-04-26T09:39:13;99955.22;;;12.07;70.47
38716;BME280;24833;49.324;8.694;2023-04-26T09:41:44;99958.31;;;12.04;68.92
38716;BME280;24833;49.324;8.694;2023-04-26T09:44:21;99956.25;;;12.06;70.58
38716;BME280;24833;49.324;8.694;2023-04-26T09:47:08;99961.81;;;12.05;70.83
38716;BME280;24833;49.324;8.694;2023-04-26T09:49:47;99961.38;;;12.01;70.49
38716;BME280;24833;49.324;8.694;2023-04-26T09:52:17;99963.81;;;11.96;69.41
38716;BME280;24833;49.324;8.694;2023-04-26T09:54:50;99967.16;;;11.98;69.85
38716;BME280;24833;49.324;8.694;2023-04-26T09:57:19;99962.81;;;11.97;69.76
38716;BME280;24833;49.324;8.694;2023-04-26T09:59:50;99969.41;;;12.01;70.06
38716;BME280;24833;49.324;8.694;2023-04-26T10:02:25;99965.91;;;12.00;67.65
38716;BME280;24833;49.324;8.694;2023-04-26T10:04:55;99966.53;;;12.03;68.08
38716;BME280;24833;49.324;8.694;2023-04-26T10:07:25;99965.94;;;12.07;69.63
38716;BME280;24833;49.324;8.694;2023-04-26T10:09:52;99965.13;;;12.13;69.03
38716;BME280;24833;49.324;8.694;2023-04-26T10:12:21;99965.97;;;12.20;69.74
38716;BME280;24833;49.324;8.694;2023-04-26T10:14:48;99958.19;;;12.25;69.57
38716;BME280;24833;49.324;8.694;2023-04-26T10:17:15;99964.97;;;12.28;69.79
38716;BME280;24833;49.324;8.694;2023-04-26T10:19:46;99951.59;;;12.35;69.92
38716;BME280;24833;49.324;8.694;2023-04-26T10:22:22;99948.72;;;12.43;71.29
38716;BME280;24833;49.324;8.694;2023-04-26T10:24:53;99946.25;;;12.48;69.97
38716;BME280;24833;49.324;8.694;2023-04-26T10:30:16;99944.88;;;12.65;69.81
38716;BME280;24833;49.324;8.694;2023-04-26T10:35:28;99943.81;;;12.66;67.55
38716;BME280;24833;49.324;8.694;2023-04-26T10:40:34;99949.41;;;12.71;68.54
38716;BME280;24833;49.324;8.694;2023-04-26T10:45:38;99938.03;;;12.69;68.65
38716;BME280;24833;49.324;8.694;2023-04-26T10:48:28;99941.56;;;12.76;70.02
38716;BME280;24833;49.324;8.694;2023-04-26T10:56:00;99942.19;;;12.98;68.73
38716;BME280;24833;49.324;8.694;2023-04-26T10:58:40;99936.59;;;13.13;70.63
38716;BME280;24833;49.324;8.694;2023-04-26T11:01:17;99930.66;;;13.24;70.47
38716;BME280;24833;49.324;8.694;2023-04-26T11:06:24;99929.75;;;13.44;70.17
38716;BME280;24833;49.324;8.694;2023-04-26T11:08:52;99933.28;;;13.51;69.76
38716;BME280;24833;49.324;8.694;2023-04-26T11:11:25;99931.41;;;13.58;69.67
38716;BME280;24833;49.324;8.694;2023-04-26T11:13:52;99918.34;;;13.68;70.23
38716;BME280;24833;49.324;8.694;2023-04-26T11:16:19;99905.31;;;13.78;69.87
38716;BME280;24833;49.324;8.694;2023-04-26T11:18:47;99902.13;;;13.95;70.24
38716;BME280;24833;49.324;8.694;2023-04-26T11:21:14;99909.25;;;14.14;70.47
38716;BME280;24833;49.324;8.694;2023-04-26T11:23:53;99898.34;;;14.40;70.82
38716;BME280;24833;49.324;8.694;2023-04-26T11:26:21;99889.06;;;14.68;70.47
38716;BME280;24833;49.324;8.694;2023-04-26T11:28:48;99899.00;;;14.92;70.27
38716;BME280;24833;49.324;8.694;2023-04-26T11:31:17;99885.38;;;15.12;69.47
38716;BME280;24833;49.324;8.694;2023-04-26T11:33:45;99884.19;;;15.26;69.74
38716;BME280;24833;49.324;8.694;2023-04-26T11:36:16;99880.53;;;15.39;70.44
38716;BME280;24833;49.324;8.694;2023-04-26T11:38:45;99877.38;;;15.61;70.95
38716;BME280;24833;49.324;8.694;2023-04-26T11:41:12;99872.94;;;15.85;70.93
38716;BME280;24833;49.324;8.694;2023-04-26T11:43:39;99879.25;;;16.08;70.75
38716;BME280;24833;49.324;8.694;2023-04-26T11:46:07;99877.22;;;16.34;70.90
38716;BME280;24833;49.324;8.694;2023-04-26T11:48:37;99877.16;;;16.64;71.04
38716;BME280;24833;49.324;8.694;2023-04-26T11:51:06;99873.84;;;16.92;70.94
38716;BME280;24833;49.324;8.694;2023-04-26T11:53:39;99871.22;;;17.21;69.39
38716;BME280;24833;49.324;8.694;2023-04-26T11:56:17;99872.25;;;17.43;70.65
38716;BME280;24833;49.324;8.694;2023-04-26T11:58:48;99865.25;;;17.70;71.68
38716;BME280;24833;49.324;8.694;2023-04-26T12:01:28;99861.75;;;17.98;70.02
38716;BME280;24833;49.324;8.694;2023-04-26T12:03:59;99858.22;;;18.27;70.67
38716;BME280;24833;49.324;8.694;2023-04-26T12:06:41;99853.47;;;18.50;69.97
38716;BME280;24833;49.324;8.694;2023-04-26T12:09:09;99859.59;;;18.74;70.24
38716;BME280;24833;49.324;8.694;2023-04-26T12:11:38;99868.56;;;18.97;69.98
38716;BME280;24833;49.324;8.694;2023-04-26T12:14:05;99861.75;;;19.11;68.67
38716;BME280;24833;49.324;8.694;2023-04-26T12:16:35;99859.16;;;18.99;64.24
38716;BME280;24833;49.324;8.694;2023-04-26T12:19:07;99860.53;;;19.02;66.56
38716;BME280;24833;49.324;8.694;2023-04-26T12:21:42;99866.94;;;18.96;63.11
38716;BME280;24833;49.324;8.694;2023-04-26T12:24:29;99867.44;;;18.93;63.05
38716;BME280;24833;49.324;8.694;2023-04-26T12:26:59;99874.19;;;18.73;59.96
38716;BME280;24833;49.324;8.694;2023-04-26T12:29:29;99863.59;;;18.72;61.35
38716;BME280;24833;49.324;8.694;2023-04-26T12:31:59;99864.78;;;18.64;61.24
38716;BME280;24833;49.324;8.694;2023-04-26T12:34:26;99858.00;;;18.62;61.83
38716;BME280;24833;49.324;8.694;2023-04-26T12:36:53;99868.56;;;18.63;61.96
38716;BME280;24833;49.324;8.694;2023-04-26T12:39:20;99862.91;;;18.65;60.92
38716;BME280;24833;49.324;8.694;2023-04-26T12:41:47;99861.00;;;18.65;60.74
38716;BME280;24833;49.324;8.694;2023-04-26T12:44:15;99861.88;;;18.66;62.47
38716;BME280;24833;49.324;8.694;2023-04-26T12:46:42;99853.97;;;18.64;62.40
38716;BME280;24833;49.324;8.694;2023-04-26T12:49:09;99854.19;;;18.74;63.91
38716;BME280;24833;49.324;8.694;2023-04-26T12:51:36;99860.72;;;18.78;60.54
38716;BME280;24833;49.324;8.694;2023-04-26T12:54:06;99859.72;;;18.85;62.62
38716;BME280;24833;49.324;8.694;2023-04-26T12:56:33;99863.25;;;18.85;60.83
38716;BME280;24833;49.324;8.694;2023-04-26T12:59:03;99858.25;;;18.77;60.64
38716;BME280;24833;49.324;8.694;2023-04-26T13:01:30;99860.66;;;18.73;61.76
38716;BME280;24833;49.324;8.694;2023-04-26T13:03:57;99853.53;;;18.67;61.42
38716;BME280;24833;49.324;8.694;2023-04-26T13:06:26;99853.81;;;18.54;60.85
38716;BME280;24833;49.324;8.694;2023-04-26T13:08:54;99856.19;;;18.50;61.00
38716;BME280;24833;49.324;8.694;2023-04-26T13:11:21;99855.13;;;18.35;60.77
38716;BME280;24833;49.324;8.694;2023-04-26T13:13:48;99852.00;;;18.26;62.50
38716;BME280;24833;49.324;8.694;2023-04-26T13:16:15;99850.03;;;18.21;62.88
38716;BME280;24833;49.324;8.694;2023-04-26T13:18:42;99859.66;;;18.17;61.15
38716;BME280;24833;49.324;8.694;2023-04-26T13:21:09;99850.06;;;18.10;60.92
38716;BME280;24833;49.324;8.694;2023-04-26T13:23:36;99843.94;;;18.14;62.30
38716;BME280;24833;49.324;8.694;2023-04-26T13:26:03;99851.34;;;18.19;62.98
38716;BME280;24833;49.324;8.694;2023-04-26T13:28:30;99850.03;;;18.21;62.38
38716;BME280;24833;49.324;8.694;2023-04-26T13:30:57;99853.88;;;18.26;63.72
38716;BME280;24833;49.324;8.694;2023-04-26T13:33:25;99846.91;;;18.30;62.71
38716;BME280;24833;49.324;8.694;2023-04-26T13:35:52;99847.66;;;18.42;62.05